1857 Tropical Storm NOT_NAMED (1857251N13300)


IBTrACS version v04r00. Visit IBTrACS website for data access.
Please direct all questions to the IBTrACS Q and A forum

Storm track - Intensity - Wind Radii - Intensity Data - Source Data - All data

Summary Information

Storm ID 1857251N13300
Start Sep 7 12Z
Landfall Sep 14 09Z
Max Intensity 55 kt (Sep 13 18Z)
End Sep 16 12Z
ATCF IDs
Track status Best track data.

Storm track plot

Map of storm track

Intensity plots

Map of storm track

Radial wind information

No radial wind information for this storm


Position and Intensity Table

BASIN ISO_TIME_________ NATURE LAT LON MLC WIND
degrees north degrees east kts
NA 1857-09-07 12:00:00 TS 12.80 -60.00 30
NA 15:00:00 TS 12.85 -60.61 30
NA 18:00:00 TS 12.90 -61.20 30
NA 21:00:00 TS 12.95 -61.76 30
NA 1857-09-08 00:00:00 TS 13.00 -62.30 30
NA 03:00:00 TS 13.06 -62.85 30
NA 06:00:00 TS 13.10 -63.40 30
NA 09:00:00 TS 13.11 -63.94 30
NA 12:00:00 TS 13.10 -64.50 30
NA 15:00:00 TS 13.09 -65.10 30
NA 18:00:00 TS 13.10 -65.70 30
NA 21:00:00 TS 13.14 -66.25 30
NA 1857-09-09 00:00:00 TS 13.20 -66.80 30
NA 03:00:00 TS 13.25 -67.39 30
NA 06:00:00 TS 13.30 -68.00 30
NA 09:00:00 TS 13.35 -68.61 30
NA 12:00:00 TS 13.40 -69.20 30
NA 15:00:00 TS 13.45 -69.76 30
NA 18:00:00 TS 13.50 -70.30 30
NA 21:00:00 TS 13.55 -70.85 30
NA 1857-09-10 00:00:00 TS 13.60 -71.40 30
NA 03:00:00 TS 13.65 -71.96 30
NA 06:00:00 TS 13.70 -72.50 30
NA 09:00:00 TS 13.73 -72.99 30
NA 12:00:00 TS 13.80 -73.50 30
NA 15:00:00 TS 13.94 -74.09 30
NA 18:00:00 TS 14.10 -74.70 30
NA 21:00:00 TS 14.20 -75.26 30
NA 1857-09-11 00:00:00 TS 14.30 -75.80 30
NA 03:00:00 TS 14.44 -76.35 30
NA 06:00:00 TS 14.60 -76.90 30
NA 09:00:00 TS 14.76 -77.46 30
NA 12:00:00 TS 14.90 -78.00 30
NA 15:00:00 TS 15.01 -78.51 30
NA 18:00:00 TS 15.10 -79.00 30
NA 21:00:00 TS 15.20 -79.50 32
NA 1857-09-12 00:00:00 TS 15.30 -80.00 35
NA 03:00:00 TS 15.40 -80.50 37
NA 06:00:00 TS 15.50 -81.00 40
NA 09:00:00 TS 15.58 -81.51 42
NA 12:00:00 TS 15.70 -82.00 45
NA 15:00:00 TS 15.89 -82.46 47
NA 18:00:00 TS 16.10 -82.90 50
NA 21:00:00 TS 16.26 -83.35 50
NA 1857-09-13 00:00:00 TS 16.40 -83.80 50
NA 03:00:00 TS 16.55 -84.26 50
NA 06:00:00 TS 16.70 -84.70 50
NA 09:00:00 TS 16.85 -85.10 50
NA 12:00:00 TS 17.00 -85.50 50
NA 15:00:00 TS 17.16 -85.94 52
NA 18:00:00 TS 17.30 -86.40 55
NA 21:00:00 TS 17.41 -86.85 55
NA 1857-09-14 00:00:00 TS 17.50 -87.30 55
NA 03:00:00 TS 17.60 -87.76 50
NA 06:00:00 TS 17.70 -88.20 45
NA 09:00:00 TS 17.79 -88.61 40
NA 12:00:00 TS 17.90 -89.00 35
NA 15:00:00 TS 18.05 -89.41 32
NA 18:00:00 TS 18.20 -89.80 30
NA 21:00:00 TS 18.30 -90.15 30
NA 1857-09-15 00:00:00 TS 18.40 -90.50 30
NA 03:00:00 TS 18.55 -90.90 30
NA 06:00:00 TS 18.70 -91.30 30
NA 09:00:00 TS 18.80 -91.66 30
NA 12:00:00 TS 18.90 -92.00 30
NA 15:00:00 TS 19.04 -92.35 32
NA 18:00:00 TS 19.20 -92.70 35
NA 21:00:00 TS 19.35 -93.05 35
NA 1857-09-16 00:00:00 TS 19.50 -93.40 35
NA 03:00:00 TS 19.65 -93.75 35
NA 06:00:00 TS 19.80 -94.10 35
NA 09:00:00 TS 19.95 -94.45 35
NA 12:00:00 TS 20.10 -94.80 35

Source Information

Agency Information
USA
TOKYO
CMA
HKO
NEWDELHI
REUNION
BOM
NADI
WELLINGTON
DS824
TD9636
TD9635
NEUMANN
MLC

All available IBTrACS Data

SEASON BASIN SUBBASIN ISO_TIME_________ NATURE LAT LON DIST2LAND LANDFALL IFLAG USA SSHS MLC LAT MLC LON MLC CLASS MLC WIND STORM SPEED STORM DIR
Year degrees north degrees east km km 1 degrees north degrees east kts kts degrees
1857 NA CS 1857-09-07 12:00:00 TS 12.80 -60.00 259 239 _____________O -1 12.80 -60.00 TD 30 12 275
1857 NA CS 15:00:00 TS 12.85 -60.61 250 246 _____________P -1 12.85 -60.61 TD 30 12 275
1857 NA CS 18:00:00 TS 12.90 -61.20 246 246 _____________O -1 12.90 -61.20 TD 30 11 275
1857 NA CS 21:00:00 TS 12.95 -61.76 246 246 _____________P -1 12.95 -61.76 TD 30 11 275
1857 NA CS 1857-09-08 00:00:00 TS 13.00 -62.30 257 257 _____________O -1 13.00 -62.30 TD 30 11 276
1857 NA CS 03:00:00 TS 13.06 -62.85 268 268 _____________P -1 13.06 -62.85 TD 30 11 275
1857 NA CS 06:00:00 TS 13.10 -63.40 270 270 _____________O -1 13.10 -63.40 TD 30 11 273
1857 NA CS 09:00:00 TS 13.11 -63.94 280 279 _____________P -1 13.11 -63.94 TD 30 11 270
1857 NA CS 12:00:00 TS 13.10 -64.50 281 281 _____________O -1 13.10 -64.50 TD 30 11 269
1857 NA CS 15:00:00 TS 13.09 -65.10 296 281 _____________P -1 13.09 -65.10 TD 30 12 270
1857 NA CS 18:00:00 TS 13.10 -65.70 281 279 _____________O -1 13.10 -65.70 TD 30 11 273
1857 NA CS 21:00:00 TS 13.14 -66.25 279 279 _____________P -1 13.14 -66.25 TD 30 11 275
1857 NA CS 1857-09-09 00:00:00 TS 13.20 -66.80 283 248 _____________O -1 13.20 -66.80 TD 30 11 276
1857 NA CS 03:00:00 TS 13.25 -67.39 248 229 _____________P -1 13.25 -67.39 TD 30 12 275
1857 NA CS 06:00:00 TS 13.30 -68.00 229 194 _____________O -1 13.30 -68.00 TD 30 12 275
1857 NA CS 09:00:00 TS 13.35 -68.61 194 164 _____________P -1 13.35 -68.61 TD 30 12 275
1857 NA CS 12:00:00 TS 13.40 -69.20 164 147 _____________O -1 13.40 -69.20 TD 30 11 275
1857 NA CS 15:00:00 TS 13.45 -69.76 145 145 _____________P -1 13.45 -69.76 TD 30 11 275
1857 NA CS 18:00:00 TS 13.50 -70.30 157 144 _____________O -1 13.50 -70.30 TD 30 11 275
1857 NA CS 21:00:00 TS 13.55 -70.85 139 134 _____________P -1 13.55 -70.85 TD 30 11 275
1857 NA CS 1857-09-10 00:00:00 TS 13.60 -71.40 134 134 _____________O -1 13.60 -71.40 TD 30 11 275
1857 NA CS 03:00:00 TS 13.65 -71.96 138 138 _____________P -1 13.65 -71.96 TD 30 11 275
1857 NA CS 06:00:00 TS 13.70 -72.50 165 165 _____________O -1 13.70 -72.50 TD 30 10 275
1857 NA CS 09:00:00 TS 13.73 -72.99 189 189 _____________P -1 13.73 -72.99 TD 30 10 276
1857 NA CS 12:00:00 TS 13.80 -73.50 227 227 _____________O -1 13.80 -73.50 TD 30 11 281
1857 NA CS 15:00:00 TS 13.94 -74.09 280 280 _____________P -1 13.94 -74.09 TD 30 12 284
1857 NA CS 18:00:00 TS 14.10 -74.70 329 329 _____________O -1 14.10 -74.70 TD 30 12 283
1857 NA CS 21:00:00 TS 14.20 -75.26 356 356 _____________P -1 14.20 -75.26 TD 30 11 281
1857 NA CS 1857-09-11 00:00:00 TS 14.30 -75.80 382 381 _____________O -1 14.30 -75.80 TD 30 11 283
1857 NA CS 03:00:00 TS 14.44 -76.35 379 348 _____________P -1 14.44 -76.35 TD 30 11 286
1857 NA CS 06:00:00 TS 14.60 -76.90 348 335 _____________O -1 14.60 -76.90 TD 30 11 286
1857 NA CS 09:00:00 TS 14.76 -77.46 326 319 _____________P -1 14.76 -77.46 TD 30 11 286
1857 NA CS 12:00:00 TS 14.90 -78.00 324 320 _____________O -1 14.90 -78.00 TD 30 10 284
1857 NA CS 15:00:00 TS 15.01 -78.51 332 332 _____________P -1 15.01 -78.51 TD 30 10 282
1857 NA CS 18:00:00 TS 15.10 -79.00 342 342 _____________O -1 15.10 -79.00 TD 30 10 281
1857 NA CS 21:00:00 TS 15.20 -79.50 355 334 _____________P -1 15.20 -79.50 TD 32 10 282
1857 NA CS 1857-09-12 00:00:00 TS 15.30 -80.00 334 282 _____________O -1 15.30 -80.00 TS 35 10 282
1857 NA CS 03:00:00 TS 15.40 -80.50 282 232 _____________P -1 15.40 -80.50 TS 37 10 282
1857 NA CS 06:00:00 TS 15.50 -81.00 232 184 _____________O -1 15.50 -81.00 TS 40 10 281
1857 NA CS 09:00:00 TS 15.58 -81.51 184 141 _____________P -1 15.58 -81.51 TS 42 10 282
1857 NA CS 12:00:00 TS 15.70 -82.00 141 116 _____________O -1 15.70 -82.00 TS 45 10 289
1857 NA CS 15:00:00 TS 15.89 -82.46 117 101 _____________P -1 15.89 -82.46 TS 47 10 295
1857 NA CS 18:00:00 TS 16.10 -82.90 104 99 _____________O -1 16.10 -82.90 TS 50 9 293
1857 NA CS 21:00:00 TS 16.26 -83.35 101 85 _____________P -1 16.26 -83.35 TS 50 9 289
1857 NA CS 1857-09-13 00:00:00 TS 16.40 -83.80 85 74 _____________O -1 16.40 -83.80 TS 50 9 289
1857 NA CS 03:00:00 TS 16.55 -84.26 78 78 _____________P -1 16.55 -84.26 TS 50 9 289
1857 NA CS 06:00:00 TS 16.70 -84.70 89 89 _____________O -1 16.70 -84.70 TS 50 9 290
1857 NA CS 09:00:00 TS 16.85 -85.10 100 100 _____________P -1 16.85 -85.10 TS 50 8 291
1857 NA CS 12:00:00 TS 17.00 -85.50 123 123 _____________O -1 17.00 -85.50 TS 50 9 291
1857 NA CS 15:00:00 TS 17.16 -85.94 145 145 _____________P -1 17.16 -85.94 TS 52 9 289
1857 NA CS 18:00:00 TS 17.30 -86.40 165 138 _____________O -1 17.30 -86.40 TS 55 9 286
1857 NA CS 21:00:00 TS 17.41 -86.85 130 94 _____________P -1 17.41 -86.85 TS 55 9 283
1857 NA CS 1857-09-14 00:00:00 TS 17.50 -87.30 94 54 _____________O -1 17.50 -87.30 TS 55 9 283
1857 NA CS 03:00:00 TS 17.60 -87.76 43 10 _____________P -1 17.60 -87.76 TS 50 9 283
1857 NA CS 06:00:00 TS 17.70 -88.20 10 0 _____________O -1 17.70 -88.20 TS 45 8 283
1857 NA NA 09:00:00 TS 17.79 -88.61 0 0 _____________P -1 17.79 -88.61 TS 40 8 285
1857 NA NA 12:00:00 TS 17.90 -89.00 0 0 _____________O -1 17.90 -89.00 TS 35 8 289
1857 NA NA 15:00:00 TS 18.05 -89.41 0 0 _____________P -1 18.05 -89.41 TS 32 8 292
1857 NA NA 18:00:00 TS 18.20 -89.80 0 0 _____________O -1 18.20 -89.80 TD 30 7 290
1857 NA NA 21:00:00 TS 18.30 -90.15 0 0 _____________P -1 18.30 -90.15 TD 30 7 287
1857 NA NA 1857-09-15 00:00:00 TS 18.40 -90.50 0 0 _____________O -1 18.40 -90.50 TD 30 8 289
1857 NA NA 03:00:00 TS 18.55 -90.90 0 0 _____________P -1 18.55 -90.90 TD 30 8 292
1857 NA GM 06:00:00 TS 18.70 -91.30 10 0 _____________O -1 18.70 -91.30 TD 30 8 289
1857 NA GM 09:00:00 TS 18.80 -91.66 21 21 _____________P -1 18.80 -91.66 TD 30 7 287
1857 NA GM 12:00:00 TS 18.90 -92.00 33 33 _____________O -1 18.90 -92.00 TD 30 7 290
1857 NA GM 15:00:00 TS 19.04 -92.35 44 44 _____________P -1 19.04 -92.35 TD 32 7 294
1857 NA GM 18:00:00 TS 19.20 -92.70 67 67 _____________O -1 19.20 -92.70 TS 35 7 295
1857 NA GM 21:00:00 TS 19.35 -93.05 88 88 _____________P -1 19.35 -93.05 TS 35 7 294
1857 NA GM 1857-09-16 00:00:00 TS 19.50 -93.40 124 124 _____________O -1 19.50 -93.40 TS 35 7 294
1857 NA GM 03:00:00 TS 19.65 -93.75 145 145 _____________P -1 19.65 -93.75 TS 35 7 294
1857 NA GM 06:00:00 TS 19.80 -94.10 164 158 _____________O -1 19.80 -94.10 TS 35 7 294
1857 NA GM 09:00:00 TS 19.95 -94.45 167 154 _____________P -1 19.95 -94.45 TS 35 7 295
1857 NA GM 12:00:00 TS 20.10 -94.80 162 _____________O -1 20.10 -94.80 TS 35 7 295